Time;durP1;ratioP1;P1;durP2;ratioP2;P2;SDS_P1;SDS_P2;PMS_P1;PMS_P2;Temp;Humidity;BMP_temperature;BMP_pressure;BME280_temperature;BME280_humidity;BME280_pressure;Samples;Min_cycle;Max_cycle;Signal;HPM_P1;HPM_P2
2022/11/13 00:00:47;;;;;;;31.10;10.50;;;;;;;7.96;100.00;99060.91;4984451;28;20839;-60
2022/11/13 00:03:12;;;;;;;31.38;11.40;;;;;;;8.16;100.00;99063.25;4986737;28;20231;-57
2022/11/13 00:05:37;;;;;;;31.92;11.32;;;;;;;8.34;100.00;99056.03;4983035;28;20091;-60
2022/11/13 00:08:03;;;;;;;44.22;12.45;;;;;;;8.34;100.00;99046.50;4981803;28;20105;-59
2022/11/13 00:10:28;;;;;;;31.23;11.27;;;;;;;7.98;100.00;99046.16;4982559;28;20416;-60
2022/11/13 00:12:54;;;;;;;34.35;11.05;;;;;;;7.98;100.00;99050.50;4984503;28;20436;-60
2022/11/13 00:15:20;;;;;;;36.85;11.70;;;;;;;8.20;100.00;99049.31;4984954;28;20105;-60
2022/11/13 00:17:45;;;;;;;35.28;11.10;;;;;;;8.55;100.00;99049.69;4983824;28;20125;-60
2022/11/13 00:20:11;;;;;;;45.53;11.63;;;;;;;8.51;100.00;99051.50;4981829;28;20053;-59
2022/11/13 00:22:36;;;;;;;55.03;11.80;;;;;;;8.40;100.00;99055.94;4984521;28;20857;-62
2022/11/13 00:25:02;;;;;;;42.65;11.52;;;;;;;7.97;100.00;99046.19;4983545;28;20116;-58
2022/11/13 00:27:29;;;;;;;29.20;11.00;;;;;;;8.40;100.00;99050.75;4982405;28;20101;-59
2022/11/13 00:29:55;;;;;;;45.83;10.98;;;;;;;8.54;100.00;99048.81;4982393;28;20030;-58
2022/11/13 00:32:20;;;;;;;44.33;11.38;;;;;;;8.10;100.00;99052.91;4985906;28;20061;-58
2022/11/13 00:34:46;;;;;;;38.45;11.05;;;;;;;8.05;100.00;99047.81;4986720;28;20120;-58
2022/11/13 00:37:11;;;;;;;60.00;10.90;;;;;;;7.60;100.00;99046.66;4987076;28;20428;-56
2022/11/13 00:39:36;;;;;;;31.05;10.35;;;;;;;8.40;100.00;99045.53;4986735;28;20045;-59
2022/11/13 00:42:01;;;;;;;39.30;10.55;;;;;;;8.40;100.00;99040.34;4986131;28;20042;-59
2022/11/13 00:44:27;;;;;;;40.92;11.15;;;;;;;7.39;100.00;99038.25;4986656;28;20073;-59
2022/11/13 00:46:52;;;;;;;38.88;10.50;;;;;;;7.57;100.00;99031.09;4987715;28;20982;-58
2022/11/13 00:49:17;;;;;;;32.53;10.80;;;;;;;7.78;100.00;99041.22;4988392;28;20035;-58
2022/11/13 00:51:43;;;;;;;36.78;10.40;;;;;;;7.28;100.00;99042.72;4983278;28;20576;-58
2022/11/13 00:54:08;;;;;;;29.08;10.52;;;;;;;8.01;100.00;99034.84;4986059;28;20159;-57
2022/11/13 00:56:33;;;;;;;32.70;10.05;;;;;;;7.93;100.00;99039.31;4988096;28;20038;-59
2022/11/13 00:58:59;;;;;;;31.80;10.70;;;;;;;7.36;100.00;99046.06;4989040;28;20467;-57
2022/11/13 01:01:24;;;;;;;28.05;9.88;;;;;;;7.45;100.00;99045.13;4987338;28;20034;-58
2022/11/13 01:03:49;;;;;;;31.88;10.93;;;;;;;7.01;100.00;99034.31;4987105;28;20025;-56
2022/11/13 01:06:26;;;;;;;59.15;12.95;;;;;;;7.89;100.00;99036.75;4987371;28;20075;-58
2022/11/13 01:08:56;;;;;;;37.97;11.20;;;;;;;6.90;100.00;99036.16;4988222;28;20076;-60
2022/11/13 01:11:24;;;;;;;45.67;14.20;;;;;;;7.58;100.00;99027.66;4985550;28;20101;-61
2022/11/13 01:13:51;;;;;;;73.70;13.57;;;;;;;6.51;100.00;99020.09;4984779;28;20393;-59
2022/11/13 01:16:18;;;;;;;56.25;12.20;;;;;;;6.88;100.00;99022.38;4988430;28;20058;-57
2022/11/13 01:18:44;;;;;;;29.63;10.50;;;;;;;6.93;100.00;99023.19;4986486;28;20022;-57
2022/11/13 01:21:17;;;;;;;30.70;10.57;;;;;;;6.92;100.00;99016.25;4986618;28;20629;-56
2022/11/13 01:23:42;;;;;;;35.13;11.48;;;;;;;6.86;100.00;99018.94;4986488;28;20026;-58
2022/11/13 01:26:24;;;;;;;32.20;11.27;;;;;;;7.09;100.00;99019.53;4985258;28;20057;-58
2022/11/13 01:28:50;;;;;;;30.40;10.90;;;;;;;7.39;100.00;99012.31;4986664;28;20034;-60
2022/11/13 01:31:18;;;;;;;48.45;11.60;;;;;;;6.58;100.00;99011.41;4986819;28;20027;-56
2022/11/13 01:33:44;;;;;;;30.88;10.55;;;;;;;7.04;100.00;99012.66;4986758;28;20029;-59
2022/11/13 01:36:22;;;;;;;28.25;10.07;;;;;;;7.64;100.00;99012.84;4986046;28;20048;-58
2022/11/13 01:38:48;;;;;;;27.20;10.55;;;;;;;7.72;100.00;99005.81;4988547;28;20531;-57
2022/11/13 01:41:26;;;;;;;32.47;11.73;;;;;;;7.59;100.00;99004.25;4989190;28;20411;-57
2022/11/13 01:43:53;;;;;;;54.85;17.08;;;;;;;7.67;100.00;99001.56;4988260;28;20116;-59
2022/11/13 01:46:24;;;;;;;34.83;12.02;;;;;;;7.83;100.00;98986.59;4986523;28;20030;-59
2022/11/13 01:49:21;;;;;;;35.97;13.20;;;;;;;7.55;100.00;98984.38;4985891;28;20045;-58
2022/11/13 01:51:54;;;;;;;44.90;17.33;;;;;;;6.93;100.00;98979.94;4977725;28;20043;-58
2022/11/13 01:54:24;;;;;;;41.95;16.50;;;;;;;7.03;100.00;98972.91;4986723;28;20038;-59
2022/11/13 01:56:50;;;;;;;39.90;15.40;;;;;;;7.05;100.00;98970.31;4984202;28;20135;-58
2022/11/13 01:59:23;;;;;;;34.40;14.50;;;;;;;7.33;100.00;98970.81;4986669;28;20026;-59
2022/11/13 02:01:48;;;;;;;30.90;12.52;;;;;;;6.94;100.00;98967.81;4985247;28;20038;-58
2022/11/13 02:04:14;;;;;;;32.45;11.80;;;;;;;6.20;100.00;98962.47;4985729;28;20026;-57
2022/11/13 02:06:53;;;;;;;30.02;11.93;;;;;;;6.98;100.00;98961.72;4985286;28;20029;-57
2022/11/13 02:09:23;;;;;;;34.58;12.43;;;;;;;7.04;100.00;98956.47;4985518;28;20026;-58
2022/11/13 02:11:48;;;;;;;32.88;11.48;;;;;;;6.96;100.00;98955.69;4985567;28;20042;-56
2022/11/13 02:14:16;;;;;;;26.80;11.18;;;;;;;6.98;100.00;98940.97;4985447;28;20030;-58
2022/11/13 02:16:45;;;;;;;30.98;11.55;;;;;;;7.22;100.00;98942.41;4988331;28;20505;-59
2022/11/13 02:19:25;;;;;;;29.27;11.10;;;;;;;7.45;100.00;98934.34;4984551;28;20132;-59
2022/11/13 02:21:57;;;;;;;30.80;10.77;;;;;;;7.28;100.00;98931.13;4983481;28;20030;-58
2022/11/13 02:24:31;;;;;;;;;;;;;;;7.17;100.00;98927.78;4987764;28;20045;-58
2022/11/13 02:27:00;;;;;;;35.88;11.65;;;;;;;6.64;100.00;98920.59;4984901;28;19922;-58
2022/11/13 02:29:26;;;;;;;33.22;11.65;;;;;;;6.87;100.00;98914.28;4987660;28;20052;-58
2022/11/13 02:31:51;;;;;;;30.65;11.10;;;;;;;6.44;100.00;98914.75;4984159;28;20469;-57
2022/11/13 02:34:16;;;;;;;28.92;10.75;;;;;;;7.00;100.00;98918.44;4985502;28;20025;-58
2022/11/13 02:36:42;;;;;;;30.42;11.15;;;;;;;7.06;100.00;98905.44;4983283;28;20034;-58
2022/11/13 02:39:11;;;;;;;35.83;12.30;;;;;;;7.09;100.00;98913.16;4986140;28;20474;-58
2022/11/13 02:41:37;;;;;;;30.55;10.82;;;;;;;7.02;100.00;98900.28;4985469;28;20713;-58
2022/11/13 02:44:04;;;;;;;33.08;10.93;;;;;;;7.01;100.00;98909.81;4985581;28;20052;-60
2022/11/13 02:46:29;;;;;;;32.97;11.70;;;;;;;7.02;100.00;98908.94;4985308;28;20072;-59
2022/11/13 02:48:54;;;;;;;28.85;10.60;;;;;;;7.18;100.00;98904.41;4985950;28;20623;-58
2022/11/13 02:51:20;;;;;;;29.42;10.00;;;;;;;7.27;100.00;98890.47;4985434;28;20054;-60
2022/11/13 02:53:45;;;;;;;24.73;8.98;;;;;;;7.46;100.00;98894.53;4985107;28;20029;-60
2022/11/13 02:56:10;;;;;;;28.73;10.45;;;;;;;7.16;100.00;98890.59;4983829;28;20053;-61
2022/11/13 02:58:36;;;;;;;29.50;10.05;;;;;;;7.34;100.00;98889.50;4983741;28;20029;-64
2022/11/13 03:01:02;;;;;;;26.40;9.55;;;;;;;7.40;100.00;98889.41;4986636;28;20034;-61
2022/11/13 03:03:28;;;;;;;26.02;9.20;;;;;;;7.45;100.00;98882.41;4986667;28;20030;-61
2022/11/13 03:05:53;;;;;;;29.63;9.85;;;;;;;7.55;100.00;98879.69;4980353;28;20041;-62
2022/11/13 03:08:20;;;;;;;23.27;8.88;;;;;;;7.53;100.00;98878.00;4984589;28;20025;-63
2022/11/13 03:10:46;;;;;;;24.10;9.43;;;;;;;7.17;100.00;98878.47;4985990;28;20038;-61
2022/11/13 03:13:11;;;;;;;21.65;8.88;;;;;;;7.33;100.00;98878.28;4985461;28;20033;-61
2022/11/13 03:15:36;;;;;;;24.85;9.23;;;;;;;7.43;100.00;98873.78;4982962;28;20034;-63
2022/11/13 03:18:06;;;;;;;21.15;8.20;;;;;;;7.78;100.00;98869.81;4986347;28;20018;-60
2022/11/13 03:20:34;;;;;;;23.33;8.88;;;;;;;7.53;100.00;98875.41;4982817;28;20034;-61
2022/11/13 03:23:00;;;;;;;22.30;8.57;;;;;;;7.69;100.00;98862.16;4982007;28;20029;-61
2022/11/13 03:25:25;;;;;;;21.83;8.38;;;;;;;7.79;100.00;98866.31;4984059;28;20029;-58
2022/11/13 03:27:50;;;;;;;21.52;8.73;;;;;;;7.36;100.00;98866.13;4984573;28;20425;-58
2022/11/13 03:30:16;;;;;;;18.67;8.23;;;;;;;7.26;100.00;98866.25;4985454;28;20034;-58
2022/11/13 03:32:41;;;;;;;27.48;9.32;;;;;;;7.68;100.00;98858.72;4984816;28;20827;-59
2022/11/13 03:35:07;;;;;;;24.52;8.90;;;;;;;7.90;100.00;98854.03;4984416;28;20138;-57
2022/11/13 03:37:33;;;;;;;23.08;8.85;;;;;;;7.79;100.00;98855.06;4983575;28;20833;-61
2022/11/13 03:39:58;;;;;;;25.42;8.73;;;;;;;7.54;100.00;98845.09;4985618;28;20814;-61
2022/11/13 03:42:23;;;;;;;24.88;9.40;;;;;;;7.49;100.00;98852.06;4984559;28;20038;-63
2022/11/13 03:44:49;;;;;;;22.42;8.63;;;;;;;7.74;100.00;98849.97;4983128;28;20136;-62
2022/11/13 03:47:14;;;;;;;23.73;8.77;;;;;;;7.84;100.00;98854.13;4982890;28;20053;-63
2022/11/13 03:49:39;;;;;;;29.13;10.20;;;;;;;7.94;100.00;98843.56;4981360;28;20109;-64
2022/11/13 03:52:05;;;;;;;24.40;9.13;;;;;;;7.69;100.00;98844.00;4985375;28;20038;-62
2022/11/13 03:54:30;;;;;;;22.92;8.82;;;;;;;7.70;100.00;98843.09;4986894;28;20120;-61
2022/11/13 03:56:56;;;;;;;26.20;9.40;;;;;;;7.88;100.00;98849.72;4985143;28;20432;-60
2022/11/13 03:59:22;;;;;;;26.83;9.45;;;;;;;7.93;100.00;98841.88;4986343;28;20152;-60
2022/11/13 04:01:47;;;;;;;23.02;9.45;;;;;;;7.79;100.00;98845.53;4982556;28;20050;-58
2022/11/13 04:04:12;;;;;;;25.38;9.25;;;;;;;7.99;100.00;98844.38;4983221;28;20542;-59
2022/11/13 04:06:38;;;;;;;26.23;8.82;;;;;;;7.85;100.00;98842.84;4981960;28;20104;-56
2022/11/13 04:09:03;;;;;;;24.45;8.85;;;;;;;8.09;100.00;98836.38;4984701;28;20701;-57
2022/11/13 04:11:28;;;;;;;22.35;8.63;;;;;;;7.68;100.00;98834.47;4989908;28;20038;-57
2022/11/13 04:13:54;;;;;;;21.48;8.98;;;;;;;7.73;100.00;98835.25;4993082;28;20022;-57
2022/11/13 04:16:19;;;;;;;24.88;9.38;;;;;;;7.55;100.00;98825.16;4990165;28;20037;-59
2022/11/13 04:18:44;;;;;;;22.15;8.18;;;;;;;7.36;100.00;98815.06;4991992;28;20026;-59
2022/11/13 04:21:10;;;;;;;21.58;9.10;;;;;;;7.44;100.00;98813.19;4985214;28;20563;-59
2022/11/13 04:23:35;;;;;;;24.45;9.00;;;;;;;6.85;100.00;98820.09;4990275;28;20034;-61
2022/11/13 04:26:00;;;;;;;22.23;9.43;;;;;;;7.26;100.00;98823.84;4990856;28;20555;-61
2022/11/13 04:28:26;;;;;;;24.55;9.95;;;;;;;7.07;100.00;98818.94;4993641;28;20034;-59
2022/11/13 04:30:53;;;;;;;27.55;10.45;;;;;;;7.29;100.00;98823.81;4989514;28;20034;-59
2022/11/13 04:33:18;;;;;;;29.83;10.75;;;;;;;7.63;100.00;98813.78;4991955;28;20022;-62
2022/11/13 04:35:50;;;;;;;28.75;10.73;;;;;;;7.61;100.00;98814.66;4989330;28;20035;-60
2022/11/13 04:38:15;;;;;;;23.90;10.55;;;;;;;7.58;100.00;98805.22;4991143;28;20072;-60
2022/11/13 04:40:41;;;;;;;32.83;10.63;;;;;;;7.99;100.00;98805.38;4990168;28;20592;-61
2022/11/13 04:43:06;;;;;;;26.58;9.98;;;;;;;8.15;100.00;98803.38;4992573;28;20113;-59
2022/11/13 04:45:32;;;;;;;25.75;10.25;;;;;;;8.15;100.00;98793.84;4989505;28;20100;-60
2022/11/13 04:47:58;;;;;;;23.10;8.90;;;;;;;8.28;100.00;98800.50;4990022;28;20034;-60
2022/11/13 04:50:23;;;;;;;26.27;10.30;;;;;;;8.03;100.00;98796.66;4989622;28;20042;-59
2022/11/13 04:52:49;;;;;;;28.63;10.07;;;;;;;8.27;100.00;98801.41;4996961;28;20118;-59
2022/11/13 04:55:15;;;;;;;30.70;9.63;;;;;;;8.71;100.00;98795.38;4990212;28;20056;-58
2022/11/13 04:57:40;;;;;;;30.90;10.40;;;;;;;8.47;100.00;98795.88;4990474;28;20100;-59
2022/11/13 05:00:07;;;;;;;23.70;9.18;;;;;;;8.11;100.00;98795.63;4989816;28;20085;-58
2022/11/13 05:02:33;;;;;;;31.10;10.18;;;;;;;8.56;100.00;98797.41;4991456;28;20112;-61
2022/11/13 05:04:59;;;;;;;21.27;7.97;;;;;;;8.58;100.00;98798.22;4988262;28;20591;-60
2022/11/13 05:07:28;;;;;;;26.52;9.05;;;;;;;8.36;100.00;98791.72;4987743;28;20077;-60
2022/11/13 05:09:53;;;;;;;25.23;8.82;;;;;;;8.21;100.00;98793.72;4989908;28;20026;-58
2022/11/13 05:12:19;;;;;;;24.60;9.55;;;;;;;8.00;100.00;98791.53;4988161;28;20596;-61
2022/11/13 05:14:45;;;;;;;27.42;9.48;;;;;;;7.74;100.00;98785.03;4989844;28;20030;-59
2022/11/13 05:17:11;;;;;;;27.73;8.98;;;;;;;8.30;100.00;98783.13;4990709;28;20121;-60
2022/11/13 05:19:37;;;;;;;24.73;7.97;;;;;;;8.64;100.00;98779.91;4989941;28;20692;-59
2022/11/13 05:22:02;;;;;;;26.05;8.45;;;;;;;8.45;100.00;98781.16;4984334;28;20096;-61
2022/11/13 05:24:28;;;;;;;25.90;9.07;;;;;;;7.43;100.00;98787.28;4987189;28;20443;-58
2022/11/13 05:26:53;;;;;;;23.08;8.55;;;;;;;7.60;100.00;98782.66;4987113;28;20038;-61
2022/11/13 05:29:19;;;;;;;23.90;9.55;;;;;;;7.51;100.00;98783.66;4987747;28;20030;-58
2022/11/13 05:31:45;;;;;;;22.50;8.32;;;;;;;7.50;100.00;98781.13;4987168;28;20567;-59
2022/11/13 05:34:11;;;;;;;26.27;8.57;;;;;;;7.48;100.00;98783.75;4985480;28;20611;-61
2022/11/13 05:36:36;;;;;;;26.15;8.77;;;;;;;8.40;100.00;98781.25;4983942;28;20492;-60
2022/11/13 05:39:02;;;;;;;21.48;7.72;;;;;;;8.53;100.00;98776.69;4985740;28;20033;-59
2022/11/13 05:41:27;;;;;;;22.40;7.97;;;;;;;8.35;100.00;98777.03;4986494;28;20969;-60
2022/11/13 05:43:53;;;;;;;15.23;6.15;;;;;;;8.53;100.00;98768.00;4988055;28;20057;-59
2022/11/13 05:46:21;;;;;;;22.55;8.25;;;;;;;8.04;100.00;98773.25;4988017;28;20038;-59
2022/11/13 05:48:50;;;;;;;19.98;7.15;;;;;;;8.51;100.00;98768.06;4986253;28;20077;-60
2022/11/13 05:51:21;;;;;;;18.77;6.65;;;;;;;8.07;100.00;98770.59;4984176;28;20128;-61
2022/11/13 05:53:47;;;;;;;26.38;8.95;;;;;;;7.42;100.00;98760.44;4987557;28;20026;-61
2022/11/13 05:56:16;;;;;;;25.10;9.00;;;;;;;7.21;100.00;98760.81;4985478;28;20928;-61
2022/11/13 05:58:42;;;;;;;23.35;7.47;;;;;;;8.03;100.00;98755.06;4988307;28;20034;-61
2022/11/13 06:01:07;;;;;;;23.85;8.43;;;;;;;8.08;100.00;98753.25;4984860;28;20030;-61
2022/11/13 06:03:33;;;;;;;25.98;8.25;;;;;;;8.27;100.00;98741.63;4988250;28;20023;-60
2022/11/13 06:05:59;;;;;;;22.00;8.45;;;;;;;8.16;100.00;98746.19;4983989;28;20065;-62
2022/11/13 06:08:24;;;;;;;21.55;6.82;;;;;;;8.41;100.00;98736.13;4984038;28;20026;-62
2022/11/13 06:10:50;;;;;;;25.67;7.60;;;;;;;8.51;100.00;98731.66;4986374;28;20555;-62
2022/11/13 06:13:15;;;;;;;23.02;8.15;;;;;;;8.12;100.00;98744.50;4985294;28;20509;-59
2022/11/13 06:15:40;;;;;;;21.30;7.90;;;;;;;7.75;100.00;98734.81;4988176;28;20038;-60
2022/11/13 06:18:06;;;;;;;20.02;7.70;;;;;;;8.06;100.00;98735.09;4986373;28;20158;-58
2022/11/13 06:20:34;;;;;;;19.38;7.03;;;;;;;8.04;100.00;98736.88;4984520;28;20137;-58
2022/11/13 06:22:59;;;;;;;58.08;9.45;;;;;;;7.44;100.00;98735.31;4986331;28;20029;-60
2022/11/13 06:25:26;;;;;;;20.08;8.55;;;;;;;6.73;100.00;98735.56;4987039;28;20029;-60
2022/11/13 06:27:51;;;;;;;20.67;7.88;;;;;;;7.52;100.00;98728.28;4986375;28;20022;-59
2022/11/13 06:30:17;;;;;;;553.50;30.45;;;;;;;7.69;100.00;98732.31;4984751;28;20037;-60
2022/11/13 06:32:43;;;;;;;27.77;8.90;;;;;;;7.90;100.00;98739.75;4986402;28;20025;-58
2022/11/13 06:35:08;;;;;;;138.43;13.27;;;;;;;7.20;100.00;98735.72;4983595;28;20030;-59
2022/11/13 06:37:33;;;;;;;21.73;8.30;;;;;;;7.90;100.00;98734.53;4986078;28;20030;-59
2022/11/13 06:39:59;;;;;;;22.20;9.60;;;;;;;7.13;100.00;98730.66;4985381;28;20049;-58
2022/11/13 06:42:24;;;;;;;41.50;8.77;;;;;;;7.47;100.00;98724.06;4985485;28;20046;-60
2022/11/13 06:44:49;;;;;;;24.60;9.15;;;;;;;7.95;100.00;98720.59;4984573;28;20085;-62
2022/11/13 06:47:15;;;;;;;24.02;9.45;;;;;;;8.22;100.00;98730.47;4982485;28;20038;-61
2022/11/13 06:49:40;;;;;;;22.80;8.30;;;;;;;8.67;100.00;98730.44;4983906;28;20030;-60
2022/11/13 06:52:06;;;;;;;23.05;8.85;;;;;;;8.84;100.00;98744.81;4984311;28;20141;-62
2022/11/13 06:54:31;;;;;;;20.33;8.25;;;;;;;9.35;100.00;98747.09;4986800;28;20040;-61
2022/11/13 06:56:57;;;;;;;24.75;8.25;;;;;;;9.79;100.00;98741.69;4985385;28;20034;-62
2022/11/13 06:59:22;;;;;;;22.27;9.00;;;;;;;9.43;100.00;98737.38;4983426;28;20079;-62
2022/11/13 07:01:49;;;;;;;25.27;9.77;;;;;;;9.28;100.00;98737.72;4984875;28;20122;-62
2022/11/13 07:04:14;;;;;;;25.15;9.55;;;;;;;9.72;100.00;98729.69;4984287;28;20033;-64
2022/11/13 07:06:40;;;;;;;36.70;10.88;;;;;;;10.22;100.00;98725.75;4983187;28;20082;-61
2022/11/13 07:09:05;;;;;;;1211.55;71.57;;;;;;;11.31;100.00;98726.84;4986880;28;20034;-64
2022/11/13 07:11:30;;;;;;;1212.40;71.03;;;;;;;12.57;100.00;98710.31;4985767;28;20042;-63
2022/11/13 07:13:56;;;;;;;1999.90;468.35;;;;;;;12.76;100.00;98708.72;4985225;28;20448;-63
2022/11/13 07:16:21;;;;;;;1999.90;581.17;;;;;;;13.92;100.00;98707.50;4984903;28;20038;-56
2022/11/13 07:18:53;;;;;;;1999.90;496.52;;;;;;;13.83;100.00;98700.88;4983336;28;20025;-57
2022/11/13 07:21:19;;;;;;;1999.90;512.05;;;;;;;14.64;100.00;98704.28;4982742;28;20045;-57
2022/11/13 07:23:47;;;;;;;1999.90;354.88;;;;;;;14.97;100.00;98697.53;4984244;28;20081;-58
2022/11/13 07:26:12;;;;;;;20.90;8.75;;;;;;;17.25;100.00;98706.78;4982783;28;20038;-58
2022/11/13 07:28:38;;;;;;;151.65;12.25;;;;;;;17.44;100.00;98709.19;4984126;28;20732;-57
2022/11/13 07:31:04;;;;;;;17.08;7.80;;;;;;;17.90;100.00;98722.34;4984828;28;20125;-59
2022/11/13 07:33:30;;;;;;;15.13;7.32;;;;;;;16.51;100.00;98721.34;4982776;28;20554;-58
2022/11/13 07:35:56;;;;;;;14.77;7.25;;;;;;;15.64;98.63;98708.28;4983774;28;20038;-58
2022/11/13 07:38:22;;;;;;;14.93;7.28;;;;;;;15.60;94.89;98705.84;4983614;28;20030;-57
2022/11/13 07:40:47;;;;;;;40.25;8.30;;;;;;;14.61;96.22;98698.34;4983978;28;20034;-57
2022/11/13 07:43:12;;;;;;;14.75;7.30;;;;;;;13.99;94.74;98698.47;4983498;28;20708;-58
2022/11/13 07:45:38;;;;;;;15.25;7.75;;;;;;;14.70;93.09;98695.28;4982135;28;20596;-57
2022/11/13 07:48:04;;;;;;;14.00;7.68;;;;;;;13.57;99.94;98686.28;4983025;28;20022;-58
2022/11/13 07:50:33;;;;;;;14.93;7.72;;;;;;;13.43;100.00;98684.22;4980788;28;20049;-57
2022/11/13 07:53:01;;;;;;;15.50;7.80;;;;;;;12.86;98.88;98686.47;4984186;28;20303;-58
2022/11/13 07:55:27;;;;;;;15.25;7.18;;;;;;;13.41;100.00;98683.44;4983708;28;20263;-58
2022/11/13 07:57:57;;;;;;;15.90;7.60;;;;;;;12.04;100.00;98674.75;4984935;28;20026;-58
2022/11/13 08:00:24;;;;;;;22.38;8.13;;;;;;;12.43;100.00;98688.16;4984418;28;20571;-58
2022/11/13 08:02:49;;;;;;;19.02;8.45;;;;;;;12.49;100.00;98679.22;4983253;28;20031;-59
2022/11/13 08:05:15;;;;;;;18.25;8.35;;;;;;;12.69;100.00;98665.34;4983574;28;20771;-59
2022/11/13 08:07:40;;;;;;;18.65;8.85;;;;;;;12.90;100.00;98658.41;4985794;28;20038;-59
2022/11/13 08:10:06;;;;;;;19.40;8.20;;;;;;;12.90;100.00;98663.66;4987222;28;20129;-58
2022/11/13 08:12:32;;;;;;;15.50;7.50;;;;;;;13.06;100.00;98650.81;4988133;28;20068;-58
2022/11/13 08:14:57;;;;;;;17.58;7.75;;;;;;;13.49;100.00;98652.53;4984671;28;20141;-61
2022/11/13 08:17:22;;;;;;;15.40;7.28;;;;;;;14.06;100.00;98660.53;4986456;28;20142;-60
2022/11/13 08:19:48;;;;;;;20.90;8.32;;;;;;;13.75;100.00;98657.53;4983924;28;20030;-60
2022/11/13 08:22:13;;;;;;;16.98;7.47;;;;;;;14.10;100.00;98663.00;4984753;28;20042;-59
2022/11/13 08:24:38;;;;;;;16.98;8.00;;;;;;;14.36;100.00;98653.97;4987270;28;20118;-60
2022/11/13 08:27:05;;;;;;;18.92;8.20;;;;;;;13.84;100.00;98662.38;4985079;28;20490;-60
2022/11/13 08:29:31;;;;;;;16.63;7.38;;;;;;;13.88;100.00;98650.88;4987638;28;20101;-58
2022/11/13 08:31:56;;;;;;;16.80;7.82;;;;;;;13.87;100.00;98641.28;4985078;28;20041;-58
2022/11/13 08:34:21;;;;;;;17.15;7.53;;;;;;;13.03;100.00;98622.09;4985525;28;20526;-59
2022/11/13 08:36:47;;;;;;;19.60;7.95;;;;;;;14.32;100.00;98621.78;4985334;28;20045;-59
2022/11/13 08:39:13;;;;;;;20.45;8.25;;;;;;;14.08;100.00;98606.22;4985640;28;20045;-59
2022/11/13 08:41:38;;;;;;;18.52;7.25;;;;;;;14.06;100.00;98601.97;4984293;28;20042;-59
2022/11/13 08:44:04;;;;;;;16.55;7.13;;;;;;;14.67;100.00;98595.66;4986017;28;20042;-60
2022/11/13 08:46:29;;;;;;;13.85;6.40;;;;;;;14.42;100.00;98594.16;4985624;28;20208;-58
2022/11/13 08:48:55;;;;;;;19.45;7.55;;;;;;;14.95;100.00;98584.66;4982263;28;20092;-60
2022/11/13 08:51:20;;;;;;;17.25;7.00;;;;;;;14.62;99.60;98581.91;4982559;28;20169;-59
2022/11/13 08:53:45;;;;;;;14.90;6.57;;;;;;;14.67;100.00;98573.78;4986701;28;20026;-61
2022/11/13 08:56:11;;;;;;;16.88;7.00;;;;;;;14.79;100.00;98568.78;4986354;28;20077;-58
2022/11/13 08:58:36;;;;;;;14.55;6.22;;;;;;;14.45;100.00;98585.31;4989752;28;20037;-60
2022/11/13 09:01:02;;;;;;;14.15;5.85;;;;;;;14.85;99.85;98567.66;4989969;28;20091;-58
2022/11/13 09:03:28;;;;;;;18.35;6.97;;;;;;;14.58;98.62;98559.34;4988902;28;20092;-59
2022/11/13 09:05:53;;;;;;;20.33;6.95;;;;;;;15.29;98.21;98545.31;4986363;28;20022;-58
2022/11/13 09:08:19;;;;;;;14.77;6.60;;;;;;;15.16;96.56;98560.84;4990614;28;20033;-58
2022/11/13 09:10:44;;;;;;;14.27;5.68;;;;;;;15.13;93.68;98561.88;4989148;28;20476;-59
2022/11/13 09:13:10;;;;;;;19.35;7.20;;;;;;;14.76;92.60;98555.84;4991769;28;20033;-60
2022/11/13 09:15:37;;;;;;;16.58;7.15;;;;;;;14.46;96.22;98553.75;4988881;28;20144;-60
2022/11/13 09:18:03;;;;;;;15.23;6.10;;;;;;;15.10;91.80;98562.00;4989554;28;20021;-59
2022/11/13 09:20:31;;;;;;;14.43;6.25;;;;;;;15.37;88.70;98574.69;4987502;28;20057;-62
2022/11/13 09:23:06;;;;;;;17.33;6.28;;;;;;;15.40;88.58;98571.88;4985987;28;20053;-61
2022/11/13 09:25:34;;;;;;;12.30;5.20;;;;;;;15.17;92.15;98563.41;4989254;28;20149;-60
2022/11/13 09:28:01;;;;;;;12.55;5.75;;;;;;;14.81;87.53;98566.09;4990211;28;20113;-59
2022/11/13 09:30:27;;;;;;;15.75;6.03;;;;;;;15.16;87.88;98548.59;4988427;28;20034;-61
2022/11/13 09:32:56;;;;;;;13.98;6.07;;;;;;;15.27;83.45;98568.19;4988838;28;20076;-61
2022/11/13 09:35:33;;;;;;;12.77;5.95;;;;;;;15.29;82.41;98559.31;4987273;28;20025;-61
2022/11/13 09:38:08;;;;;;;11.48;5.40;;;;;;;15.13;81.28;98590.78;4987927;28;20037;-60
2022/11/13 09:40:50;;;;;;;13.38;6.13;;;;;;;15.36;82.75;98586.97;4987593;28;20038;-60
2022/11/13 09:43:22;;;;;;;16.90;6.20;;;;;;;16.51;79.49;98571.25;4986970;28;20050;-62
2022/11/13 09:45:49;;;;;;;16.15;6.53;;;;;;;15.87;80.26;98565.94;4987146;28;20034;-59
2022/11/13 09:48:37;;;;;;;13.88;5.93;;;;;;;16.63;76.15;98570.53;4988085;28;20027;-60
2022/11/13 09:51:13;;;;;;;16.17;6.30;;;;;;;16.26;77.36;98580.50;4985183;28;20688;-61
2022/11/13 09:53:39;;;;;;;13.73;6.03;;;;;;;16.38;76.12;98590.38;4990864;28;20049;-61
2022/11/13 09:56:20;;;;;;;15.73;6.13;;;;;;;15.70;77.85;98581.75;4989550;28;20083;-61
2022/11/13 09:58:56;;;;;;;17.23;5.65;;;;;;;15.92;78.65;98582.34;4988843;28;20107;-61
2022/11/13 10:01:44;;;;;;;15.80;5.70;;;;;;;16.44;77.29;98578.66;4988813;28;20041;-61
2022/11/13 10:04:13;;;;;;;12.73;5.53;;;;;;;16.83;74.37;98577.34;4988314;28;20033;-58
2022/11/13 10:06:51;;;;;;;13.63;5.55;;;;;;;16.70;75.02;98579.81;4985807;28;20042;-60
2022/11/13 10:09:16;;;;;;;14.52;6.13;;;;;;;16.29;73.21;98572.44;4987897;28;20026;-62
2022/11/13 10:11:57;;;;;;;12.95;5.25;;;;;;;16.68;73.92;98568.50;4987545;28;20567;-60
2022/11/13 10:14:29;;;;;;;13.55;6.00;;;;;;;17.23;71.72;98566.28;4987380;28;20505;-57
2022/11/13 10:17:02;;;;;;;14.75;5.30;;;;;;;16.87;71.23;98567.47;4987931;28;20069;-60
2022/11/13 10:19:46;;;;;;;10.93;5.63;;;;;;;16.80;70.97;98558.19;4986142;28;20756;-60
2022/11/13 10:22:49;;;;;;;18.80;5.63;;;;;;;17.69;67.82;98560.88;4985844;28;20038;-60
2022/11/13 10:25:19;;;;;;;13.38;5.65;;;;;;;17.10;68.57;98561.72;4965035;28;20030;-59
2022/11/13 10:27:54;;;;;;;11.73;5.35;;;;;;;17.22;69.07;98567.22;4987602;28;20026;-60
2022/11/13 10:30:22;;;;;;;11.80;5.43;;;;;;;17.17;68.33;98556.94;4988898;28;20028;-60
2022/11/13 10:32:51;;;;;;;10.70;4.50;;;;;;;17.56;77.63;98549.38;4988876;28;20030;-62
2022/11/13 10:35:29;;;;;;;14.18;5.53;;;;;;;17.44;86.93;98546.56;4985924;28;20150;-58
2022/11/13 10:37:58;;;;;;;11.45;5.22;;;;;;;17.50;70.47;98542.69;4986118;28;20695;-60
2022/11/13 10:40:29;;;;;;;10.45;4.88;;;;;;;17.00;69.71;98550.03;4989415;28;20050;-60
2022/11/13 10:43:14;;;;;;;10.85;5.18;;;;;;;17.33;69.05;98533.13;4988873;28;20120;-60
2022/11/13 10:45:52;;;;;;;15.02;5.15;;;;;;;18.26;79.28;98529.16;4988501;28;20038;-61
2022/11/13 10:48:21;;;;;;;11.18;5.15;;;;;;;17.69;68.13;98521.31;4987870;28;20022;-60
2022/11/13 10:51:17;;;;;;;13.13;5.20;;;;;;;17.61;67.71;98519.13;4983082;28;20038;-60
2022/11/13 10:53:43;;;;;;;12.38;5.32;;;;;;;17.21;67.89;98518.09;4984934;28;20033;-60
2022/11/13 10:56:31;;;;;;;10.35;4.97;;;;;;;17.85;65.50;98506.25;4984634;28;20045;-61
2022/11/13 10:59:13;;;;;;;8.80;4.20;;;;;;;18.90;67.21;98488.09;4987865;28;20037;-62
2022/11/13 11:01:40;;;;;;;12.90;5.05;;;;;;;19.44;67.91;98478.16;4985569;28;20130;-61
2022/11/13 11:04:11;;;;;;;12.30;5.22;;;;;;;18.16;67.02;98472.63;4987541;28;20025;-59
2022/11/13 11:06:38;;;;;;;11.43;4.78;;;;;;;18.64;65.16;98478.28;4984672;28;20100;-59
2022/11/13 11:09:19;;;;;;;9.02;4.78;;;;;;;17.74;66.74;98482.28;4989834;28;20057;-61
2022/11/13 11:14:56;;;;;;;12.05;5.50;;;;;;;17.99;65.56;98488.69;4987560;28;20400;-59
2022/11/13 11:17:43;;;;;;;10.20;4.95;;;;;;;18.07;66.37;98479.34;4986261;28;20089;-59
2022/11/13 11:20:46;;;;;;;13.55;5.70;;;;;;;18.37;65.36;98469.53;4983378;28;20120;-60
2022/11/13 11:23:41;;;;;;;10.38;4.82;;;;;;;18.18;66.37;98464.59;4986468;28;20021;-59
2022/11/13 11:26:17;;;;;;;10.93;5.13;;;;;;;17.97;68.02;98453.63;4988154;28;20030;-59
2022/11/13 11:28:48;;;;;;;10.10;5.07;;;;;;;18.05;67.90;98456.63;4984919;28;20061;-60